Time;durP1;ratioP1;P1;durP2;ratioP2;P2;SDS_P1;SDS_P2;PMS_P1;PMS_P2;Temp;Humidity;BMP_temperature;BMP_pressure;BME280_temperature;BME280_humidity;BME280_pressure;Samples;Min_cycle;Max_cycle;Signal;HPM_P1;HPM_P2
2021/08/19 00:00:27;;;;;;;5.10;2.90;;;;;17.40;100989.00;;;;12935447;22;20220;-77
2021/08/19 00:05:28;;;;;;;7.13;3.08;;;;;17.40;100986.00;;;;12889243;22;20180;-77
2021/08/19 00:10:31;;;;;;;5.22;2.78;;;;;17.30;100986.00;;;;12913866;22;20181;-77
2021/08/19 00:15:32;;;;;;;5.53;2.85;;;;;17.30;100976.00;;;;12960285;22;20193;-77
2021/08/19 00:20:33;;;;;;;7.18;2.92;;;;;17.30;100977.00;;;;12937367;22;20169;-77
2021/08/19 00:25:36;;;;;;;3.88;2.50;;;;;17.30;100978.00;;;;12888613;22;20170;-76
2021/08/19 00:30:38;;;;;;;6.57;3.00;;;;;17.30;100981.00;;;;12909032;22;20165;-76
2021/08/19 00:35:39;;;;;;;10.10;2.90;;;;;17.30;100985.00;;;;12937037;22;20189;-77
2021/08/19 00:40:40;;;;;;;5.75;3.17;;;;;17.20;100975.00;;;;12913323;22;20169;-77
2021/08/19 00:45:43;;;;;;;5.93;2.88;;;;;17.20;100980.00;;;;12889270;22;20244;-77
2021/08/19 00:50:45;;;;;;;3.95;2.80;;;;;17.20;100970.00;;;;12888818;22;20196;-77
2021/08/19 00:55:48;;;;;;;3.53;2.75;;;;;17.20;100975.00;;;;12889796;22;20197;-76
2021/08/19 01:00:50;;;;;;;6.47;3.47;;;;;17.20;100970.00;;;;12888464;22;20635;-77
2021/08/19 01:05:52;;;;;;;4.75;2.95;;;;;17.20;100961.00;;;;12934842;22;20158;-76
2021/08/19 01:10:54;;;;;;;4.45;2.95;;;;;17.20;100959.00;;;;12888832;22;20493;-77
2021/08/19 01:15:55;;;;;;;6.65;2.83;;;;;17.20;100962.00;;;;12863819;22;20228;-77
2021/08/19 01:20:56;;;;;;;7.20;2.85;;;;;17.20;100960.00;;;;12862998;22;20170;-77
2021/08/19 01:25:58;;;;;;;7.00;2.85;;;;;17.10;100960.00;;;;12888566;22;20200;-76
2021/08/19 01:30:59;;;;;;;6.63;3.28;;;;;17.10;100952.00;;;;12864162;22;20659;-76
2021/08/19 01:36:02;;;;;;;7.50;3.20;;;;;17.10;100958.00;;;;12934054;22;20749;-76
2021/08/19 01:41:03;;;;;;;7.03;2.88;;;;;17.10;100962.00;;;;12933880;22;20384;-77
2021/08/19 01:46:06;;;;;;;5.90;3.33;;;;;17.10;100955.00;;;;12890372;22;20197;-77
2021/08/19 01:51:11;;;;;;;7.30;3.35;;;;;17.10;100952.00;;;;12864836;22;20236;-77
2021/08/19 01:56:13;;;;;;;6.00;3.22;;;;;17.10;100959.00;;;;12937859;22;20193;-78
2021/08/19 02:01:19;;;;;;;7.43;3.85;;;;;17.10;100964.00;;;;12890083;22;20174;-76
2021/08/19 02:06:20;;;;;;;6.50;3.60;;;;;17.10;100958.00;;;;12890678;22;20235;-77
2021/08/19 02:11:24;;;;;;;6.18;3.65;;;;;17.00;100961.00;;;;12936328;22;20173;-77
2021/08/19 02:16:25;;;;;;;4.55;3.35;;;;;17.00;100957.00;;;;12936142;22;20193;-77
2021/08/19 02:21:26;;;;;;;7.68;3.90;;;;;17.00;100959.00;;;;12890013;22;20165;-77
2021/08/19 02:26:27;;;;;;;6.97;3.80;;;;;17.00;100953.00;;;;12936167;22;20172;-77
2021/08/19 02:31:28;;;;;;;10.20;4.05;;;;;17.00;100949.00;;;;12915040;22;20161;-77
2021/08/19 02:36:29;;;;;;;9.48;4.22;;;;;17.00;100942.00;;;;12914513;22;20197;-77
2021/08/19 02:41:31;;;;;;;8.63;5.00;;;;;17.00;100948.00;;;;12936511;22;20162;-77
2021/08/19 02:46:33;;;;;;;10.48;4.68;;;;;17.00;100936.00;;;;12864929;22;20204;-77
2021/08/19 02:51:34;;;;;;;5.72;4.50;;;;;16.90;100929.00;;;;12840590;22;20184;-77
2021/08/19 02:56:35;;;;;;;10.23;5.05;;;;;16.90;100937.00;;;;12914971;22;20848;-77
2021/08/19 03:01:36;;;;;;;8.57;4.78;;;;;16.90;100924.00;;;;12936024;22;20172;-77
2021/08/19 03:06:38;;;;;;;6.50;4.32;;;;;16.90;100927.00;;;;12935576;22;20601;-77
2021/08/19 03:11:39;;;;;;;6.38;4.57;;;;;16.90;100920.00;;;;12864160;22;20232;-77
2021/08/19 03:16:40;;;;;;;8.57;4.50;;;;;16.80;100914.00;;;;12865345;22;20205;-77
2021/08/19 03:21:41;;;;;;;8.38;5.13;;;;;16.80;100912.00;;;;12889380;22;20177;-77
2021/08/19 03:26:42;;;;;;;8.27;4.60;;;;;16.80;100918.00;;;;12865686;22;20657;-77
2021/08/19 03:31:43;;;;;;;7.35;4.45;;;;;16.80;100917.00;;;;12864747;22;20169;-76
2021/08/19 03:36:46;;;;;;;6.97;4.80;;;;;16.80;100918.00;;;;12889436;22;20204;-77
2021/08/19 03:41:47;;;;;;;9.60;5.38;;;;;16.80;100916.00;;;;12910196;22;20612;-77
2021/08/19 03:46:49;;;;;;;5.80;4.25;;;;;16.70;100915.00;;;;12840205;22;20173;-77
2021/08/19 03:51:50;;;;;;;7.82;4.57;;;;;16.70;100910.00;;;;12914880;22;20219;-77
2021/08/19 03:56:52;;;;;;;9.30;4.57;;;;;16.70;100912.00;;;;12889479;22;20625;-78
2021/08/19 04:01:54;;;;;;;6.93;4.13;;;;;16.70;100910.00;;;;12864314;22;20613;-78
2021/08/19 04:06:55;;;;;;;9.32;4.03;;;;;16.70;100919.00;;;;12864140;22;20196;-77
2021/08/19 04:11:56;;;;;;;6.43;4.18;;;;;16.70;100916.00;;;;12888643;22;20173;-77
2021/08/19 04:16:58;;;;;;;8.07;3.92;;;;;16.70;100914.00;;;;12864245;22;20208;-77
2021/08/19 04:21:59;;;;;;;6.47;3.85;;;;;16.70;100906.00;;;;12889414;22;20244;-77
2021/08/19 04:27:01;;;;;;;7.70;4.13;;;;;16.60;100914.00;;;;12889256;22;20196;-77
2021/08/19 04:32:04;;;;;;;5.50;3.65;;;;;16.60;100907.00;;;;12934938;22;20613;-77
2021/08/19 04:37:05;;;;;;;6.28;4.18;;;;;16.60;100907.00;;;;12863898;22;20692;-78
2021/08/19 04:42:06;;;;;;;6.13;3.63;;;;;16.60;100906.00;;;;12888929;22;20177;-77
2021/08/19 04:47:07;;;;;;;5.53;3.92;;;;;16.50;100921.00;;;;12888571;22;20173;-77
2021/08/19 04:52:08;;;;;;;4.50;3.80;;;;;16.40;100910.00;;;;12864285;22;20204;-77
2021/08/19 04:57:10;;;;;;;5.50;3.42;;;;;16.40;100923.00;;;;12888142;22;20200;-77
2021/08/19 05:02:11;;;;;;;8.40;3.83;;;;;16.40;100927.00;;;;12864815;22;20177;-78
2021/08/19 05:07:12;;;;;;;7.68;3.97;;;;;16.50;100928.00;;;;12864708;22;20792;-77
2021/08/19 05:12:14;;;;;;;6.65;3.63;;;;;16.60;100929.00;;;;12889353;22;20268;-77
2021/08/19 05:17:15;;;;;;;6.93;4.78;;;;;16.70;100932.00;;;;12888250;22;20203;-77
2021/08/19 05:22:16;;;;;;;6.68;3.97;;;;;16.80;100938.00;;;;12936300;22;20172;-77
2021/08/19 05:27:17;;;;;;;5.72;3.97;;;;;16.90;100944.00;;;;12889452;23;20173;-77
2021/08/19 05:32:19;;;;;;;11.15;4.10;;;;;17.00;100944.00;;;;12889603;22;20220;-78
2021/08/19 05:37:20;;;;;;;8.68;4.10;;;;;17.00;100958.00;;;;12889336;22;20205;-77
2021/08/19 05:42:21;;;;;;;9.80;4.30;;;;;17.00;100950.00;;;;12889745;22;20169;-77
2021/08/19 05:47:23;;;;;;;10.35;4.45;;;;;17.00;100957.00;;;;12938014;22;20213;-77
2021/08/19 05:52:24;;;;;;;10.13;4.30;;;;;17.00;100959.00;;;;12889114;22;20176;-77
2021/08/19 05:57:25;;;;;;;6.50;4.45;;;;;17.00;100966.00;;;;12889193;22;20193;-77
2021/08/19 06:02:26;;;;;;;8.15;4.05;;;;;17.00;100963.00;;;;12865172;22;20176;-77
2021/08/19 06:07:27;;;;;;;17.13;5.05;;;;;17.10;100973.00;;;;12889159;22;20169;-77
2021/08/19 06:12:28;;;;;;;14.23;4.90;;;;;17.10;100976.00;;;;12914235;22;20224;-77
2021/08/19 06:17:30;;;;;;;11.85;4.70;;;;;17.10;100968.00;;;;12934047;22;20189;-77
2021/08/19 06:22:31;;;;;;;11.73;4.30;;;;;17.20;100972.00;;;;12888431;22;20174;-77
2021/08/19 06:27:32;;;;;;;6.95;4.10;;;;;17.20;100976.00;;;;12863611;22;20169;-77
2021/08/19 06:32:33;;;;;;;4.60;3.15;;;;;17.10;100978.00;;;;12916473;22;20265;-77
2021/08/19 06:37:38;;;;;;;6.57;3.67;;;;;17.10;100979.00;;;;12912338;22;20657;-77
2021/08/19 06:42:39;;;;;;;7.28;3.38;;;;;17.30;100977.00;;;;12891264;22;20494;-78
2021/08/19 06:47:41;;;;;;;7.13;4.20;;;;;17.40;100974.00;;;;12916544;22;20196;-77
2021/08/19 06:52:43;;;;;;;5.22;3.55;;;;;17.50;100981.00;;;;12912019;22;20166;-77
2021/08/19 06:57:45;;;;;;;7.00;2.90;;;;;17.80;100990.00;;;;12888352;22;20216;-78
2021/08/19 07:02:46;;;;;;;4.68;3.20;;;;;18.00;100985.00;;;;12891340;22;20174;-78
2021/08/19 07:07:48;;;;;;;9.57;3.75;;;;;18.10;100986.00;;;;12912770;22;20162;-78
2021/08/19 07:12:49;;;;;;;8.52;3.05;;;;;18.30;100987.00;;;;12882257;22;20177;-78
2021/08/19 07:17:51;;;;;;;5.57;2.40;;;;;18.50;100985.00;;;;12867012;22;20272;-78
2021/08/19 07:22:52;;;;;;;5.47;2.33;;;;;18.90;101001.00;;;;12892465;22;20231;-78
2021/08/19 07:27:54;;;;;;;5.60;2.50;;;;;19.10;100998.00;;;;12891666;22;20174;-78
2021/08/19 07:32:55;;;;;;;5.53;2.03;;;;;18.90;100996.00;;;;12937882;22;20303;-78
2021/08/19 07:37:57;;;;;;;4.65;2.38;;;;;19.00;100999.00;;;;12938012;22;20190;-78
2021/08/19 07:42:58;;;;;;;5.78;2.42;;;;;18.90;100981.00;;;;12937367;22;20169;-78
2021/08/19 07:48:13;;;;;;;5.05;2.35;;;;;18.90;100985.00;;;;12866934;22;20267;-78
2021/08/19 07:53:14;;;;;;;6.22;2.10;;;;;19.10;100994.00;;;;12891396;22;20180;-78
2021/08/19 07:58:15;;;;;;;5.03;2.05;;;;;19.50;100994.00;;;;12867468;22;20193;-79
2021/08/19 08:03:16;;;;;;;4.50;2.05;;;;;20.00;100997.00;;;;12889814;22;20177;-78
2021/08/19 08:08:18;;;;;;;4.60;2.10;;;;;20.00;100990.00;;;;12866371;22;20173;-78
2021/08/19 08:13:19;;;;;;;3.17;2.13;;;;;19.90;100993.00;;;;12890857;22;20165;-78
2021/08/19 08:18:20;;;;;;;7.65;2.42;;;;;20.30;100990.00;;;;12884954;22;20212;-76
2021/08/19 08:23:21;;;;;;;4.00;2.00;;;;;20.30;101001.00;;;;12870860;22;20173;-77
2021/08/19 08:28:26;;;;;;;7.57;2.00;;;;;20.40;100996.00;;;;12855580;22;20368;-77
2021/08/19 08:33:27;;;;;;;6.40;2.08;;;;;20.60;100999.00;;;;12882074;22;20216;-77
2021/08/19 08:38:31;;;;;;;7.35;2.55;;;;;21.10;101004.00;;;;12884682;22;20197;-77
2021/08/19 08:43:34;;;;;;;5.00;2.40;;;;;20.80;101002.00;;;;12884451;22;20256;-77
2021/08/19 08:48:37;;;;;;;4.75;2.05;;;;;20.50;101011.00;;;;12860083;22;20178;-77
2021/08/19 08:53:40;;;;;;;3.72;2.03;;;;;20.90;101008.00;;;;12871380;22;20176;-77
2021/08/19 08:58:56;;;;;;;8.18;2.80;;;;;21.10;101015.00;;;;12837915;22;20185;-77
2021/08/19 09:03:58;;;;;;;4.65;2.78;;;;;21.40;101018.00;;;;12853859;22;20169;-77
2021/08/19 09:09:12;;;;;;;4.00;2.15;;;;;21.60;101021.00;;;;12856984;22;20175;-77
2021/08/19 09:14:20;;;;;;;3.92;2.35;;;;;21.70;101014.00;;;;12927153;22;20293;-77
2021/08/19 09:19:26;;;;;;;5.15;2.13;;;;;21.60;101010.00;;;;12904747;22;20573;-77
2021/08/19 09:24:30;;;;;;;3.47;2.25;;;;;21.50;101018.00;;;;12901498;22;20858;-77
2021/08/19 09:29:31;;;;;;;2.33;1.83;;;;;21.50;101018.00;;;;12880155;22;20173;-77
2021/08/19 09:34:34;;;;;;;2.35;1.60;;;;;21.60;101012.00;;;;12880491;22;20205;-77
2021/08/19 09:39:57;;;;;;;3.38;1.75;;;;;22.00;101012.00;;;;12908622;22;20172;-77
2021/08/19 09:45:18;;;;;;;6.45;2.05;;;;;22.40;101013.00;;;;12856312;22;20236;-78
2021/08/19 09:50:21;;;;;;;4.03;2.20;;;;;22.40;101001.00;;;;12928858;22;20192;-77
2021/08/19 09:55:32;;;;;;;4.68;2.60;;;;;22.80;100995.00;;;;12882928;22;20252;-77
2021/08/19 10:00:40;;;;;;;3.38;2.03;;;;;23.30;100994.00;;;;12883690;22;20683;-77
2021/08/19 10:05:45;;;;;;;1.85;1.50;;;;;22.50;100994.00;;;;12859659;22;20260;-77
2021/08/19 10:10:50;;;;;;;4.20;2.08;;;;;21.80;100996.00;;;;12834595;22;20209;-77
2021/08/19 10:15:53;;;;;;;4.43;1.55;;;;;21.90;100990.00;;;;12905459;22;20260;-78
2021/08/19 10:21:16;;;;;;;5.78;2.00;;;;;22.30;100998.00;;;;12834799;22;20170;-77
2021/08/19 10:26:33;;;;;;;3.70;1.70;;;;;22.50;100991.00;;;;12930852;22;20166;-77
2021/08/19 10:31:35;;;;;;;5.00;2.33;;;;;23.90;100982.00;;;;12878572;22;20205;-77
2021/08/19 10:36:42;;;;;;;3.47;2.15;;;;;23.40;100987.00;;;;12910391;22;20193;-77
2021/08/19 10:41:43;;;;;;;3.40;1.92;;;;;22.50;100992.00;;;;12932710;22;20213;-77
2021/08/19 10:47:03;;;;;;;4.55;1.70;;;;;22.70;100993.00;;;;12863131;22;20261;-77
2021/08/19 10:52:08;;;;;;;2.63;1.42;;;;;22.60;100996.00;;;;12884517;22;20170;-77
2021/08/19 10:57:31;;;;;;;5.53;1.85;;;;;21.90;100995.00;;;;12905369;22;20186;-77
2021/08/19 11:02:38;;;;;;;1.83;1.00;;;;;22.20;100992.00;;;;12928644;22;20174;-77
2021/08/19 11:07:50;;;;;;;4.78;1.50;;;;;22.50;101005.00;;;;12884322;22;20486;-77
2021/08/19 11:12:52;;;;;;;1.60;1.25;;;;;22.60;100991.00;;;;12908213;22;20173;-78
2021/08/19 11:17:57;;;;;;;6.50;1.75;;;;;22.90;100994.00;;;;12929723;22;20193;-77
2021/08/19 11:23:07;;;;;;;2.30;1.35;;;;;22.80;101001.00;;;;12884504;22;20820;-77
2021/08/19 11:28:10;;;;;;;5.05;1.83;;;;;22.70;101007.00;;;;12884134;22;20189;-78
2021/08/19 11:33:23;;;;;;;3.42;1.50;;;;;22.90;101007.00;;;;12884235;22;20633;-77
2021/08/19 11:38:26;;;;;;;3.15;1.95;;;;;23.10;100999.00;;;;12904614;22;20186;-77
2021/08/19 11:43:29;;;;;;;2.75;1.60;;;;;23.00;101012.00;;;;12928482;22;20169;-77
2021/08/19 11:48:30;;;;;;;3.30;1.63;;;;;22.40;101002.00;;;;12909280;22;20994;-77
2021/08/19 11:53:32;;;;;;;2.80;1.60;;;;;22.90;101002.00;;;;12884016;22;20177;-77
2021/08/19 11:58:33;;;;;;;5.57;1.42;;;;;23.80;101000.00;;;;12930635;22;20189;-77
2021/08/19 12:03:44;;;;;;;3.40;2.00;;;;;24.20;101006.00;;;;12883652;22;20169;-77
2021/08/19 12:08:46;;;;;;;3.15;2.13;;;;;23.50;101006.00;;;;12926255;22;20227;-78
2021/08/19 12:13:52;;;;;;;3.53;1.88;;;;;22.60;101011.00;;;;12907723;22;20677;-77
2021/08/19 12:19:28;;;;;;;6.50;2.33;;;;;21.80;101017.00;;;;12857084;22;20205;-77
2021/08/19 12:24:37;;;;;;;3.10;2.08;;;;;21.40;101018.00;;;;12851916;22;20177;-77
2021/08/19 12:29:47;;;;;;;6.93;2.28;;;;;21.60;101018.00;;;;12929431;22;20624;-77
2021/08/19 12:35:03;;;;;;;6.13;1.80;;;;;21.90;101015.00;;;;12929037;22;20185;-78
2021/08/19 12:40:15;;;;;;;4.32;2.03;;;;;22.70;101010.00;;;;12907191;22;20695;-77
2021/08/19 12:45:21;;;;;;;5.22;2.20;;;;;22.90;101011.00;;;;12930456;22;20229;-77
2021/08/19 12:50:23;;;;;;;3.85;2.50;;;;;22.90;101006.00;;;;12908035;22;20220;-78
2021/08/19 12:55:24;;;;;;;4.72;2.13;;;;;22.90;101009.00;;;;12902706;22;20193;-77
2021/08/19 13:00:28;;;;;;;7.68;2.92;;;;;23.10;101008.00;;;;12883655;22;20195;-77
2021/08/19 13:05:32;;;;;;;7.57;2.70;;;;;23.60;101015.00;;;;12885727;22;20268;-77
2021/08/19 13:10:34;;;;;;;5.25;2.30;;;;;23.50;101011.00;;;;12930773;22;20170;-77
2021/08/19 13:15:35;;;;;;;7.30;3.47;;;;;23.30;101003.00;;;;12859779;22;20255;-78
2021/08/19 13:20:37;;;;;;;4.10;2.60;;;;;23.70;101006.00;;;;12836231;22;20173;-78
2021/08/19 13:25:41;;;;;;;4.22;2.38;;;;;24.80;100998.00;;;;12932143;22;20169;-78
2021/08/19 13:30:43;;;;;;;3.90;1.95;;;;;25.10;100993.00;;;;12910540;22;20628;-77
2021/08/19 13:35:44;;;;;;;2.42;1.40;;;;;25.30;100985.00;;;;12904882;22;20703;-78
2021/08/19 13:40:47;;;;;;;3.42;1.45;;;;;25.70;100989.00;;;;12956543;22;20161;-78
2021/08/19 13:45:48;;;;;;;4.18;1.83;;;;;25.90;100994.00;;;;12884719;22;20181;-77
2021/08/19 13:50:49;;;;;;;4.60;1.67;;;;;25.10;100981.00;;;;12884325;22;20178;-78
2021/08/19 13:55:50;;;;;;;5.13;1.40;;;;;24.00;100987.00;;;;12884557;22;20216;-77
2021/08/19 14:00:51;;;;;;;2.55;1.40;;;;;23.20;100972.00;;;;12883706;22;20186;-77
2021/08/19 14:05:54;;;;;;;2.03;1.75;;;;;22.30;100983.00;;;;12860321;22;20227;-77
2021/08/19 14:10:55;;;;;;;1.85;1.38;;;;;21.80;100983.00;;;;12884397;22;20177;-77
2021/08/19 14:15:57;;;;;;;3.47;1.58;;;;;21.90;100987.00;;;;12883177;22;20285;-78
2021/08/19 14:20:58;;;;;;;7.15;2.60;;;;;21.70;100976.00;;;;12930838;22;20158;-78
2021/08/19 14:25:59;;;;;;;3.42;1.75;;;;;21.50;100984.00;;;;12908218;22;20509;-77
2021/08/19 14:31:02;;;;;;;3.80;2.25;;;;;21.20;100985.00;;;;12930342;22;20177;-77
2021/08/19 14:36:05;;;;;;;6.95;2.70;;;;;21.30;100972.00;;;;12857905;22;20198;-77
2021/08/19 14:41:06;;;;;;;5.07;2.60;;;;;21.80;100982.00;;;;12883499;22;20177;-77
2021/08/19 14:46:07;;;;;;;5.72;2.70;;;;;23.10;100975.00;;;;12882832;22;20169;-78
2021/08/19 14:51:08;;;;;;;4.45;1.92;;;;;23.60;100974.00;;;;12858715;22;20184;-78
2021/08/19 14:56:10;;;;;;;5.88;2.25;;;;;23.20;100971.00;;;;12932589;22;20276;-77
2021/08/19 15:01:11;;;;;;;5.88;2.80;;;;;22.70;100967.00;;;;12933003;22;20165;-78
2021/08/19 15:06:12;;;;;;;7.78;2.53;;;;;21.80;100979.00;;;;12932523;22;20169;-77
2021/08/19 15:11:14;;;;;;;3.55;2.28;;;;;21.50;100969.00;;;;12906980;22;20158;-77
2021/08/19 15:16:15;;;;;;;4.05;2.20;;;;;21.20;100968.00;;;;12884580;22;20244;-77
2021/08/19 15:21:16;;;;;;;4.13;2.60;;;;;21.50;100966.00;;;;12834878;22;20170;-77
2021/08/19 15:26:17;;;;;;;5.30;2.90;;;;;22.60;100957.00;;;;12885381;22;20248;-77
2021/08/19 15:31:20;;;;;;;4.82;2.65;;;;;22.70;100956.00;;;;12931279;22;20161;-77
2021/08/19 15:36:22;;;;;;;4.18;2.47;;;;;23.10;100955.00;;;;12931202;22;20195;-77
2021/08/19 15:41:24;;;;;;;3.55;2.70;;;;;23.40;100957.00;;;;12885850;22;20170;-77
2021/08/19 15:46:26;;;;;;;6.40;2.20;;;;;23.00;100958.00;;;;12884963;22;20165;-77
2021/08/19 15:51:27;;;;;;;3.38;2.47;;;;;23.10;100951.00;;;;12910209;22;20177;-77
2021/08/19 15:56:28;;;;;;;4.40;2.22;;;;;23.10;100953.00;;;;12910435;22;20193;-77
2021/08/19 16:01:29;;;;;;;3.67;1.88;;;;;22.60;100945.00;;;;12884913;22;20596;-77
2021/08/19 16:06:31;;;;;;;2.83;2.05;;;;;22.10;100947.00;;;;12884423;22;20174;-77
2021/08/19 16:11:33;;;;;;;5.88;2.10;;;;;22.20;100951.00;;;;12910045;22;20192;-76
2021/08/19 16:16:34;;;;;;;3.42;1.95;;;;;22.40;100939.00;;;;12884495;22;20197;-77
2021/08/19 16:21:35;;;;;;;2.40;2.03;;;;;22.10;100938.00;;;;12884332;22;20226;-77
2021/08/19 16:26:36;;;;;;;5.60;2.28;;;;;22.10;100932.00;;;;12911567;22;20169;-77
2021/08/19 16:31:37;;;;;;;3.70;2.15;;;;;22.00;100937.00;;;;12914046;22;20169;-77
2021/08/19 16:36:38;;;;;;;5.03;2.30;;;;;21.70;100929.00;;;;12935167;22;20197;-77
2021/08/19 16:41:40;;;;;;;2.85;2.05;;;;;21.50;100938.00;;;;12959132;22;20166;-77
2021/08/19 16:46:41;;;;;;;2.70;2.00;;;;;21.40;100934.00;;;;12888429;22;20172;-77
2021/08/19 16:51:42;;;;;;;4.30;2.08;;;;;21.10;100931.00;;;;12852562;22;20628;-77
2021/08/19 16:56:43;;;;;;;5.85;2.20;;;;;21.00;100938.00;;;;12878926;22;20502;-77
2021/08/19 17:01:44;;;;;;;2.72;1.85;;;;;20.90;100937.00;;;;12886235;22;20216;-76
2021/08/19 17:06:46;;;;;;;4.15;1.65;;;;;21.00;100928.00;;;;12886007;22;20255;-76
2021/08/19 17:11:47;;;;;;;3.00;1.50;;;;;21.00;100933.00;;;;12860572;22;20170;-77
2021/08/19 17:16:48;;;;;;;5.43;2.03;;;;;21.10;100923.00;;;;12887138;22;20272;-76
2021/08/19 17:21:50;;;;;;;3.15;2.00;;;;;20.80;100938.00;;;;12933733;22;20170;-77
2021/08/19 17:26:51;;;;;;;3.15;2.08;;;;;20.70;100928.00;;;;12910134;22;20835;-76
2021/08/19 17:31:52;;;;;;;3.13;2.10;;;;;20.60;100932.00;;;;12837366;22;20177;-76
2021/08/19 17:36:53;;;;;;;4.15;1.80;;;;;20.50;100934.00;;;;12886922;22;20197;-77
2021/08/19 17:41:54;;;;;;;5.13;2.15;;;;;20.40;100924.00;;;;12887289;22;20173;-77
2021/08/19 17:46:55;;;;;;;3.45;1.98;;;;;20.00;100928.00;;;;12911849;22;20180;-76
2021/08/19 17:51:57;;;;;;;5.32;1.80;;;;;19.70;100927.00;;;;12935041;22;20169;-77
2021/08/19 17:56:58;;;;;;;2.55;1.77;;;;;19.50;100935.00;;;;12934091;22;20240;-75
2021/08/19 18:02:00;;;;;;;8.68;2.53;;;;;19.20;100935.00;;;;12911822;22;20177;-76
2021/08/19 18:07:02;;;;;;;4.00;2.08;;;;;19.00;100934.00;;;;12907070;22;20245;-76
2021/08/19 18:12:06;;;;;;;2.88;1.73;;;;;18.80;100930.00;;;;12886102;22;20173;-76
2021/08/19 18:17:07;;;;;;;4.97;1.92;;;;;18.60;100928.00;;;;12910859;22;20644;-76
2021/08/19 18:22:08;;;;;;;2.40;1.80;;;;;18.50;100940.00;;;;12911380;22;20201;-76
2021/08/19 18:27:10;;;;;;;4.10;2.58;;;;;18.40;100934.00;;;;12934442;22;20165;-76
2021/08/19 18:32:11;;;;;;;7.07;2.50;;;;;18.40;100935.00;;;;12863396;22;20166;-77
2021/08/19 18:37:12;;;;;;;3.28;2.50;;;;;18.20;100937.00;;;;12888739;22;20206;-76
2021/08/19 18:42:13;;;;;;;4.18;1.90;;;;;18.00;100939.00;;;;12909857;22;20835;-76
2021/08/19 18:47:14;;;;;;;2.75;2.10;;;;;17.90;100945.00;;;;12888541;22;20184;-77
2021/08/19 18:52:16;;;;;;;2.78;2.13;;;;;17.80;100954.00;;;;12863876;22;20172;-76
2021/08/19 18:57:17;;;;;;;3.88;2.25;;;;;17.70;100955.00;;;;12935765;22;20624;-76
2021/08/19 19:02:18;;;;;;;4.45;2.33;;;;;17.60;100953.00;;;;12934089;22;20170;-76
2021/08/19 19:07:19;;;;;;;5.13;2.00;;;;;17.60;100962.00;;;;12887602;22;20165;-76
2021/08/19 19:12:21;;;;;;;8.25;2.78;;;;;17.50;100966.00;;;;12933345;22;20667;-76
2021/08/19 19:17:22;;;;;;;7.70;2.85;;;;;17.40;100971.00;;;;12887308;22;20200;-76
2021/08/19 19:22:23;;;;;;;4.15;2.00;;;;;17.30;100972.00;;;;12887677;22;20165;-76
2021/08/19 19:27:25;;;;;;;5.47;2.60;;;;;17.30;100981.00;;;;12887106;22;20231;-75
2021/08/19 19:32:26;;;;;;;2.53;2.15;;;;;17.30;100990.00;;;;12912675;22;20173;-76
2021/08/19 19:37:27;;;;;;;4.45;2.20;;;;;17.40;100985.00;;;;12907981;22;20196;-76
2021/08/19 19:42:30;;;;;;;5.63;2.10;;;;;17.40;100987.00;;;;12887378;22;20177;-76
2021/08/19 19:47:31;;;;;;;5.45;1.98;;;;;17.40;101002.00;;;;12912221;22;20545;-76
2021/08/19 19:52:32;;;;;;;4.50;2.70;;;;;17.30;101005.00;;;;12887283;23;20203;-76
2021/08/19 19:57:34;;;;;;;4.47;2.00;;;;;17.30;101002.00;;;;12912406;22;20189;-77
2021/08/19 20:02:35;;;;;;;5.32;2.25;;;;;17.30;101008.00;;;;12887391;22;20197;-76
2021/08/19 20:07:36;;;;;;;2.15;1.90;;;;;17.30;101016.00;;;;12863320;22;20169;-76
2021/08/19 20:12:38;;;;;;;3.78;1.80;;;;;17.20;101022.00;;;;12933263;22;20165;-75
2021/08/19 20:17:39;;;;;;;3.85;2.00;;;;;17.10;101032.00;;;;12886431;22;20194;-75
2021/08/19 20:22:41;;;;;;;4.88;2.45;;;;;17.00;101021.00;;;;12933149;22;20177;-76
2021/08/19 20:27:42;;;;;;;6.40;2.70;;;;;17.00;101040.00;;;;12886454;22;20178;-76
2021/08/19 20:32:43;;;;;;;4.82;2.38;;;;;17.00;101033.00;;;;12933683;22;20176;-76
2021/08/19 20:37:45;;;;;;;4.90;2.53;;;;;17.00;101049.00;;;;12932832;22;20232;-75
2021/08/19 20:42:46;;;;;;;6.68;2.28;;;;;17.00;101037.00;;;;12861969;22;20208;-76
2021/08/19 20:47:50;;;;;;;2.55;2.35;;;;;16.80;101041.00;;;;12911799;22;20173;-76
2021/08/19 20:52:51;;;;;;;4.72;2.25;;;;;16.50;101035.00;;;;12886341;22;20257;-76
2021/08/19 20:57:53;;;;;;;3.90;2.70;;;;;16.30;101046.00;;;;12886330;22;20193;-76
2021/08/19 21:02:54;;;;;;;5.80;2.58;;;;;16.20;101050.00;;;;12932865;22;20184;-76
2021/08/19 21:07:56;;;;;;;3.92;2.55;;;;;16.00;101060.00;;;;12862479;22;20173;-76
2021/08/19 21:12:57;;;;;;;4.32;2.67;;;;;15.90;101055.00;;;;12886777;22;20169;-76
2021/08/19 21:17:59;;;;;;;3.83;2.80;;;;;15.80;101050.00;;;;12886535;22;20201;-75
2021/08/19 21:23:00;;;;;;;4.72;2.67;;;;;15.80;101052.00;;;;12886255;22;20501;-76
2021/08/19 21:28:02;;;;;;;4.35;2.85;;;;;15.80;101055.00;;;;12911567;22;20185;-76
2021/08/19 21:33:05;;;;;;;3.88;2.85;;;;;15.80;101061.00;;;;12886134;22;20173;-76
2021/08/19 21:38:06;;;;;;;8.43;3.73;;;;;15.70;101062.00;;;;12886524;22;20189;-75
2021/08/19 21:43:07;;;;;;;4.93;2.73;;;;;15.60;101067.00;;;;12885886;22;20174;-75
2021/08/19 21:48:08;;;;;;;4.53;3.23;;;;;15.50;101064.00;;;;12860871;22;20180;-75
2021/08/19 21:53:09;;;;;;;4.87;3.73;;;;;15.30;101060.00;;;;12860971;23;20601;-75
2021/08/19 21:58:10;;;;;;;5.77;3.83;;;;;15.20;101069.00;;;;12860148;22;20228;-76
2021/08/19 22:03:12;;;;;;;6.83;4.17;;;;;15.10;101069.00;;;;12888285;22;20184;-76
2021/08/19 22:08:13;;;;;;;8.20;4.97;;;;;15.10;101063.00;;;;12888396;22;20180;-76
2021/08/19 22:13:14;;;;;;;6.30;4.50;;;;;14.90;101071.00;;;;12888103;22;20652;-75
2021/08/19 22:18:15;;;;;;;8.93;4.73;;;;;14.80;101073.00;;;;12934083;22;20200;-76
2021/08/19 22:23:17;;;;;;;5.70;4.67;;;;;14.80;101075.00;;;;12864383;22;20174;-76
2021/08/19 22:28:19;;;;;;;8.77;5.60;;;;;14.70;101073.00;;;;12863887;22;20174;-75
2021/08/19 22:33:21;;;;;;;6.33;4.77;;;;;14.70;101070.00;;;;12888131;22;20170;-76
2021/08/19 22:38:22;;;;;;;7.03;5.17;;;;;14.80;101073.00;;;;12888001;22;20268;-76
2021/08/19 22:43:23;;;;;;;8.47;5.13;;;;;14.90;101074.00;;;;12888204;22;20687;-76
2021/08/19 22:48:24;;;;;;;5.87;4.43;;;;;15.00;101076.00;;;;12933752;22;20217;-76
2021/08/19 22:53:26;;;;;;;8.40;4.70;;;;;15.20;101075.00;;;;12913102;22;20180;-76
2021/08/19 22:58:27;;;;;;;7.27;4.63;;;;;15.40;101081.00;;;;12887576;22;20199;-76
2021/08/19 23:03:28;;;;;;;8.43;5.13;;;;;15.50;101089.00;;;;12887548;22;20224;-76
2021/08/19 23:08:30;;;;;;;7.97;4.28;;;;;15.60;101086.00;;;;12887874;22;20174;-76
2021/08/19 23:13:31;;;;;;;7.35;4.80;;;;;15.80;101084.00;;;;12837243;22;20170;-76
2021/08/19 23:18:32;;;;;;;6.65;4.55;;;;;15.90;101083.00;;;;12934954;22;20293;-76
2021/08/19 23:23:34;;;;;;;4.72;3.90;;;;;15.90;101082.00;;;;12887683;22;20174;-76
2021/08/19 23:28:36;;;;;;;4.88;4.05;;;;;15.90;101077.00;;;;12887242;22;20169;-77
2021/08/19 23:33:38;;;;;;;6.63;4.68;;;;;15.90;101072.00;;;;12908219;22;20193;-76
2021/08/19 23:38:39;;;;;;;6.22;3.97;;;;;16.00;101066.00;;;;12887132;22;20201;-76
2021/08/19 23:43:40;;;;;;;10.63;5.70;;;;;16.00;101071.00;;;;12862283;22;20177;-76
2021/08/19 23:48:42;;;;;;;7.97;5.20;;;;;16.10;101076.00;;;;12912502;22;20179;-76
2021/08/19 23:53:43;;;;;;;10.67;5.17;;;;;16.20;101069.00;;;;12933479;22;20180;-76
2021/08/19 23:58:45;;;;;;;7.33;4.60;;;;;16.30;101083.00;;;;12862578;22;20193;-76
